HCMF

Bosaso Airport

Bosaso, Somalia
METAR HCMF 231300Z 36008KT CAVOK 25/18 Q1013 NOSIG METAR
Observed Flight Rules
Jan-23 @ 13:00 UTC (11 hours ago) Visual Flight Rules
Wind Visibility Clouds
360° at 8 knots 10,000+ meters
  • Clear skies
Temperatures Readings
Current 25°C / 77°F
Dewpoint 18°C / 64°F
Humidity 65%
Altimeter 29.91" Hg
Pressure 1013 hPa
Elevation 2
METAR HCMF 231300Z 36008KT CAVOK 25/18 Q1013 NOSIG METAR
Observed Flight Rules
Jan-23 @ 13:00 UTC
(11 hours ago)
VFR
Wind Visibility
360° at 8 knots 10,000+ meters
Clouds
  • Clear skies
Temperature Dewpoint
25°C / 77°F 18°C / 64°F
Humidity Altimeter Pressure
65% 29.91" Hg 1013 hPa